Pembroke Pines, FL (33025)

11:13 PM EDT on May 05, 2015 (GMT -0400)
APRSWXNET | | Change Station
CLOSE
Current Station
Personal Weather Station
Location: Pembroke Pines, FL
Elevation: 6 ft
Nearby Weather Stations

Elev 6 ft 25.99 °N, 80.28 °W | Updated 10 hours ago

Mostly Cloudy
Mostly Cloudy
71 °F
Feels Like 71 °F
N
5
Wind Variable Wind from WNW
Gusts mph

Today
High -- | Low -- °F
--% Chance of Precip.
Yesterday
High -- | Low -- °F
Precip. -- in
6:41 AM 7:54 PM
Waning Gibbous, 96% visible
Pressure 30.06 in
Visibility 10.0 miles
Clouds Scattered Clouds 3900 ft
Mostly Cloudy 4800 ft
Dew Point 68 °F
Humidity 90%
Rainfall in
Snow Depth Not available.
UV 0 out of 12
Pollen .50 out of 12
Air Quality Not available.
Flu Activity Local Activity
METAR KOPF 060253Z AUTO 00000KT 10SM SCT039 BKN048 22/21 A3006

More Conditions Fewer Conditions

Pressure 30.06 in
Visibility 10.0 miles
Clouds Scattered Clouds 3900 ft
Mostly Cloudy 4800 ft
Dew Point 68 °F
Humidity 90%
Rainfall in
Snow Depth Not available.
UV 0 out of 12
Pollen .50 out of 12
Air Quality Not available.
Flu Activity Local Activity
METAR KOPF 060253Z AUTO 00000KT 10SM SCT039 BKN048 22/21 A3006

More Conditions Fewer Conditions

Nowcast | as of 11:00 PM EDT on May 5, 2015

Through 1 am isolated to scattered showers will be impacting mainly portions of coastal and Metro Broward and Palm Beach counties as they move in from the east and northeast off the Atlantic waters. Main concerns with the activity will be brief periods of heavy rain and gusty winds in excess of 25 mph.

×

10-Day Weather Forecast

Almanac

Astronomy

May. 05, 2015 Rise Set
Actual Time
Civil Twilight
Nautical Twilight
Astronomical Twilight
Moon
Length of Visible Light
Length of Day
Tomorrow will be .
, % of the Moon is Illuminated

Today's Extremes

State Highs State Lows

Community

WunderPhotos

Upload Photos

1,819,062 photos uploaded!

WunderBlogs® & News

Nearby

Air Quality

  Air Quality AQ Index Pollutant
Not available.

Snow Depth

Station Depth Elevation

Earthquake Activity

City Distance Mag. Time & Date
Minimum magnitude displayed is 2.5.

Coastal Water Temperatures

Place Temperature

Stations

Nearby Weather Stations

Station Location Temp. Windchill Dew Point Humidity Wind Precip. Elev Updated Type